createdAt,value
2023-03-12T00:01:44.185Z,301.68
2023-03-12T00:03:43.339Z,301.68
2023-03-12T00:05:43.288Z,0.82
2023-03-12T00:07:52.701Z,0.82
2023-03-12T00:09:43.386Z,0.82
2023-03-12T00:11:43.905Z,0.82
2023-03-12T00:13:43.019Z,306.87
2023-03-12T00:15:43.978Z,306.87
2023-03-12T00:17:43.360Z,306.87
2023-03-12T00:19:43.551Z,301.68
2023-03-12T00:21:43.104Z,301.68
2023-03-12T00:23:43.718Z,0.82
2023-03-12T00:25:46.291Z,0.82
2023-03-12T00:27:43.428Z,0.82
2023-03-12T00:29:43.170Z,0.82
2023-03-12T00:31:44.044Z,301.68
2023-03-12T00:33:43.176Z,301.68
2023-03-12T00:35:43.348Z,0.82
2023-03-12T00:37:43.023Z,301.68
2023-03-12T00:39:43.338Z,301.68
2023-03-12T00:41:42.795Z,301.68
2023-03-12T00:43:43.340Z,0.8
2023-03-12T00:45:43.729Z,0.8
2023-03-12T00:47:44.152Z,0.8
2023-03-12T00:49:42.956Z,296.56
2023-03-12T00:51:43.589Z,296.56
2023-03-12T00:53:43.314Z,291.5
2023-03-12T00:55:43.562Z,0.8
2023-03-12T00:57:42.976Z,0.8
2023-03-12T00:59:43.457Z,291.5
2023-03-12T01:01:49.072Z,0.79
2023-03-12T01:03:43.383Z,0.79
2023-03-12T01:05:46.468Z,0.79
2023-03-12T01:07:43.236Z,291.5
2023-03-12T01:09:43.682Z,291.5
2023-03-12T01:11:42.958Z,0.79
2023-03-12T01:13:43.244Z,291.5
2023-03-12T01:15:42.922Z,291.5
2023-03-12T01:17:43.856Z,291.5
2023-03-12T01:19:43.676Z,291.5
2023-03-12T01:21:43.183Z,291.5
2023-03-12T01:23:43.751Z,286.49
2023-03-12T01:25:42.802Z,0.77
2023-03-12T01:27:43.020Z,0.77
2023-03-12T01:29:43.829Z,0.77
2023-03-12T01:31:43.602Z,0.77
2023-03-12T01:33:42.915Z,0.77
2023-03-12T01:35:43.605Z,0.76
2023-03-12T01:37:44.216Z,0.76
2023-03-12T01:39:43.378Z,0.76
2023-03-12T01:41:43.797Z,0.76
2023-03-12T01:43:43.068Z,0.76
2023-03-12T01:45:43.598Z,0.76
2023-03-12T01:47:43.306Z,0.75
2023-03-12T01:49:43.230Z,0.75
2023-03-12T01:51:42.999Z,0.75
2023-03-12T01:53:43.396Z,0.75
2023-03-12T01:55:42.554Z,0.75
2023-03-12T01:57:43.345Z,0.75
2023-03-12T01:59:42.935Z,276.64
2023-03-12T02:01:48.553Z,276.64
2023-03-12T02:03:42.938Z,276.64
2023-03-12T02:05:43.820Z,0.72
2023-03-12T02:07:42.816Z,271.81
2023-03-12T02:09:43.377Z,271.81
2023-03-12T02:11:42.834Z,0.72
2023-03-12T02:13:43.383Z,267.02
2023-03-12T02:15:42.680Z,267.02
2023-03-12T02:17:43.684Z,0.72
2023-03-12T02:19:42.837Z,0.72
2023-03-12T02:21:43.447Z,0.72
2023-03-12T02:23:42.862Z,267.02
2023-03-12T02:25:43.352Z,0.72
2023-03-12T02:27:42.675Z,0.72
2023-03-12T02:29:43.356Z,0.72
2023-03-12T02:31:43.164Z,0.72
2023-03-12T02:33:43.679Z,0.72
2023-03-12T02:35:42.872Z,0.71
2023-03-12T02:37:43.599Z,0.72
2023-03-12T02:39:42.815Z,0.72
2023-03-12T02:41:43.377Z,0.71
2023-03-12T02:43:42.758Z,0.71
2023-03-12T02:45:43.583Z,0.71
2023-03-12T02:47:44.346Z,267.02
2023-03-12T02:49:43.420Z,267.02
2023-03-12T02:51:43.157Z,267.02
2023-03-12T02:53:43.466Z,262.3
2023-03-12T02:55:42.710Z,0.71
2023-03-12T02:57:43.486Z,0.71
2023-03-12T02:59:43.093Z,262.3
2023-03-12T03:01:48.593Z,262.3
2023-03-12T03:03:43.634Z,262.3
2023-03-12T03:05:43.218Z,0.68
2023-03-12T03:07:43.561Z,0.68
2023-03-12T03:09:42.964Z,0.68
2023-03-12T03:11:43.412Z,0.7
2023-03-12T03:13:42.908Z,0.7
2023-03-12T03:15:43.818Z,0.7
2023-03-12T03:17:43.152Z,0.68
2023-03-12T03:19:43.603Z,0.7
2023-03-12T03:21:43.315Z,0.7
2023-03-12T03:23:44.039Z,253.01
2023-03-12T03:25:43.012Z,0.68
2023-03-12T03:27:42.739Z,0.68
2023-03-12T03:29:43.509Z,253.01
2023-03-12T03:31:43.178Z,0.68
2023-03-12T03:33:43.508Z,0.68
2023-03-12T03:35:42.955Z,253.01
2023-03-12T03:37:43.657Z,253.01
2023-03-12T03:39:43.995Z,253.01
2023-03-12T03:41:43.405Z,248.45
2023-03-12T03:43:43.078Z,243.95
2023-03-12T03:45:43.650Z,243.95
2023-03-12T03:47:43.199Z,239.5
2023-03-12T03:49:43.290Z,243.95
2023-03-12T03:51:43.191Z,243.95
2023-03-12T03:53:43.727Z,0.65
2023-03-12T03:55:42.955Z,239.5
2023-03-12T03:57:43.380Z,239.5
2023-03-12T03:59:43.095Z,0.64
2023-03-12T04:01:51.962Z,0.65
2023-03-12T04:03:43.159Z,0.65
2023-03-12T04:05:43.459Z,0.64
2023-03-12T04:07:42.999Z,0.65
2023-03-12T04:09:43.472Z,0.65
2023-03-12T04:11:42.875Z,235.1
2023-03-12T04:13:43.566Z,0.64
2023-03-12T04:15:43.244Z,0.64
2023-03-12T04:17:43.882Z,235.1
2023-03-12T04:19:43.398Z,235.1
2023-03-12T04:21:42.854Z,235.1
2023-03-12T04:23:43.469Z,239.5
2023-03-12T04:25:43.489Z,239.5
2023-03-12T04:27:43.037Z,239.5
2023-03-12T04:29:43.789Z,239.5
2023-03-12T04:31:43.785Z,239.5
2023-03-12T04:33:43.229Z,239.5
2023-03-12T04:35:45.033Z,239.5
2023-03-12T04:37:43.117Z,239.5
2023-03-12T04:39:43.445Z,239.5
2023-03-12T04:41:42.925Z,239.5
2023-03-12T04:43:43.826Z,239.5
2023-03-12T04:45:43.468Z,239.5
2023-03-12T04:47:44.130Z,239.5
2023-03-12T04:49:43.051Z,239.5
2023-03-12T04:51:43.850Z,239.5
2023-03-12T04:53:43.881Z,239.5
2023-03-12T04:55:44.496Z,239.5
2023-03-12T04:57:43.365Z,239.5
2023-03-12T04:59:42.950Z,239.5
2023-03-12T05:01:50.828Z,239.5
2023-03-12T05:03:43.899Z,239.5
2023-03-12T05:05:43.284Z,239.5
2023-03-12T05:07:43.576Z,239.5
2023-03-12T05:09:43.105Z,239.5
2023-03-12T05:11:43.588Z,239.5
2023-03-12T05:13:43.014Z,239.5
2023-03-12T05:15:43.733Z,239.5
2023-03-12T05:17:43.475Z,239.5
2023-03-12T05:19:43.552Z,239.5
2023-03-12T05:21:43.140Z,239.5
2023-03-12T05:23:43.701Z,239.5
2023-03-12T05:25:42.989Z,239.5
2023-03-12T05:27:43.650Z,239.5
2023-03-12T05:29:43.182Z,239.5
2023-03-12T05:31:43.813Z,2372.57
2023-03-12T05:33:43.332Z,2372.57
2023-03-12T05:35:43.793Z,2372.57
2023-03-12T05:37:43.236Z,4.49
2023-03-12T05:39:43.541Z,4.49
2023-03-12T05:41:43.149Z,4.49
2023-03-12T05:43:43.565Z,4.49
2023-03-12T05:45:43.139Z,4.49
2023-03-12T05:47:44.237Z,4.49
2023-03-12T05:49:43.269Z,4.49
2023-03-12T05:51:42.947Z,4.49
2023-03-12T05:53:43.402Z,4.49
2023-03-12T05:55:42.889Z,4.49
2023-03-12T05:57:43.921Z,4.49
2023-03-12T05:59:43.386Z,4.49
2023-03-12T06:01:47.481Z,4.49
2023-03-12T06:03:44.040Z,4.49
2023-03-12T06:05:43.813Z,4.49
2023-03-12T06:07:43.726Z,4.49
2023-03-12T06:09:43.793Z,4.49
2023-03-12T06:11:42.918Z,4.49
2023-03-12T06:13:43.856Z,4.49
2023-03-12T06:15:43.389Z,4.49
2023-03-12T06:17:44.088Z,4.49
2023-03-12T06:19:43.004Z,4.49
2023-03-12T06:21:43.783Z,4.49
2023-03-12T06:23:44.271Z,4.49
2023-03-12T06:25:42.999Z,4.49
2023-03-12T06:27:43.260Z,4.49
2023-03-12T06:29:43.988Z,4.49
2023-03-12T06:31:43.455Z,4.49
2023-03-12T06:33:43.877Z,4.49
2023-03-12T06:35:43.395Z,4.49
2023-03-12T06:37:43.861Z,4.49
2023-03-12T06:39:43.037Z,4.49
2023-03-12T06:41:43.778Z,4.49
2023-03-12T06:43:43.345Z,12.03
2023-03-12T06:45:43.520Z,12.03
2023-03-12T06:47:43.656Z,12.03
2023-03-12T06:49:43.470Z,5.25
2023-03-12T06:51:43.124Z,5.25
2023-03-12T06:53:43.331Z,5.25
2023-03-12T06:55:42.648Z,5.25
2023-03-12T06:57:43.361Z,5.25
2023-03-12T06:59:42.983Z,5.25
2023-03-12T07:01:47.184Z,5.25
2023-03-12T07:03:43.153Z,5.25
2023-03-12T07:05:44.201Z,5.25
2023-03-12T07:07:43.030Z,5.25
2023-03-12T07:09:43.569Z,5.25
2023-03-12T07:11:46.344Z,5.25
2023-03-12T07:13:43.678Z,5.25
2023-03-12T07:15:43.332Z,5.25
2023-03-12T07:17:43.843Z,5.25
2023-03-12T07:19:43.278Z,5.25
2023-03-12T07:21:43.883Z,5.25
2023-03-12T07:23:43.010Z,5.25
2023-03-12T07:25:43.463Z,5.25
2023-03-12T07:27:43.044Z,5.25
2023-03-12T07:29:43.550Z,5.25
2023-03-12T07:31:43.067Z,5.25
2023-03-12T07:33:44.473Z,5.25
2023-03-12T07:35:44.294Z,5.25
2023-03-12T07:37:44.422Z,5.25
2023-03-12T07:39:43.319Z,5.25
2023-03-12T07:41:43.723Z,5.25
2023-03-12T07:43:44.695Z,5.25
2023-03-12T07:45:44.390Z,5.25
2023-03-12T07:47:59.084Z,5.25
2023-03-12T07:49:44.405Z,5.25
2023-03-12T07:51:43.175Z,5.25
2023-03-12T07:53:44.420Z,5.25
2023-03-12T07:55:44.051Z,4027.32
2023-03-12T07:57:45.680Z,4819.87
2023-03-12T07:59:44.525Z,4819.87
2023-03-12T08:01:47.956Z,4819.87
2023-03-12T08:03:46.167Z,4819.87
2023-03-12T08:05:44.545Z,4819.87
2023-03-12T08:07:44.254Z,4819.87
2023-03-12T08:09:43.337Z,4819.87
2023-03-12T08:11:44.690Z,4819.87
2023-03-12T08:13:44.414Z,4819.87
2023-03-12T08:15:44.157Z,4819.87
2023-03-12T08:17:43.335Z,4819.87
2023-03-12T08:19:44.306Z,4819.87
2023-03-12T08:21:44.057Z,4819.87
2023-03-12T08:23:42.868Z,4819.87
2023-03-12T08:25:43.800Z,4819.87
2023-03-12T08:27:42.987Z,4819.87
2023-03-12T08:29:43.454Z,4819.87
2023-03-12T08:31:57.367Z,4819.87
2023-03-12T08:33:47.900Z,4819.87
2023-03-12T08:35:43.324Z,4819.87
2023-03-12T08:37:42.828Z,4819.87
2023-03-12T08:39:43.263Z,4819.87
2023-03-12T08:41:42.889Z,4819.87
2023-03-12T08:43:43.480Z,4819.87
2023-03-12T08:45:42.849Z,4819.87
2023-03-12T08:47:43.501Z,4819.87
2023-03-12T08:49:43.798Z,4819.87
2023-03-12T08:51:43.117Z,4819.87
2023-03-12T08:53:43.560Z,4819.87
2023-03-12T08:55:43.209Z,4819.87
2023-03-12T08:57:43.610Z,4819.87
2023-03-12T08:59:42.960Z,4819.87
2023-03-12T09:01:47.170Z,6055.73
2023-03-12T09:03:43.637Z,6269.38
2023-03-12T09:05:43.901Z,6269.38
2023-03-12T09:07:42.828Z,3.99
2023-03-12T09:09:43.274Z,3.34
2023-03-12T09:11:43.793Z,3.34
2023-03-12T09:16:26.683Z,1.11
2023-03-12T09:17:44.017Z,1.11
2023-03-12T09:19:45.402Z,230.75
2023-03-12T09:21:42.892Z,213.89
2023-03-12T09:23:43.223Z,213.89
2023-03-12T09:25:43.031Z,0.43
2023-03-12T09:27:43.413Z,154.43
2023-03-12T09:30:00.217Z,154.43
2023-03-12T09:31:43.565Z,129.17
2023-03-12T09:33:47.397Z,0.35
2023-03-12T09:35:43.130Z,0.35
2023-03-12T09:37:46.926Z,117.59
2023-03-12T09:39:43.461Z,0.31
2023-03-12T09:41:43.878Z,0.31
2023-03-12T09:43:43.997Z,114.8
2023-03-12T09:45:43.360Z,0.3
2023-03-12T09:47:43.228Z,0.3
2023-03-12T09:49:44.259Z,0.29
2023-03-12T09:51:42.818Z,109.34
2023-03-12T09:53:43.247Z,109.34
2023-03-12T09:55:44.193Z,101.46
2023-03-12T09:57:43.658Z,0.27
2023-03-12T09:59:42.736Z,0.27
2023-03-12T10:01:49.660Z,91.52
2023-03-12T10:03:43.913Z,91.52
2023-03-12T10:06:06.105Z,91.52
2023-03-12T10:07:43.929Z,0.24
2023-03-12T10:10:04.977Z,0.23
2023-03-12T10:11:43.511Z,0.23
2023-03-12T10:13:43.981Z,84.47
2023-03-12T10:15:53.293Z,0.22
2023-03-12T10:17:44.097Z,0.22
2023-03-12T10:19:45.052Z,0.21
2023-03-12T10:21:43.572Z,0.2
2023-03-12T10:23:42.890Z,0.2
2023-03-12T10:25:44.428Z,0.19
2023-03-12T10:27:43.004Z,0.18
2023-03-12T10:29:44.900Z,0.18
2023-03-12T10:31:43.544Z,0.16
2023-03-12T10:33:43.994Z,57.77
2023-03-12T10:35:44.666Z,57.77
2023-03-12T10:37:43.459Z,0.15
2023-03-12T10:39:42.964Z,55.97
2023-03-12T10:41:46.344Z,55.97
2023-03-12T10:43:42.759Z,55.97
2023-03-12T10:45:43.636Z,0.15
2023-03-12T10:47:43.709Z,0.15
2023-03-12T10:49:43.565Z,0.16
2023-03-12T10:51:42.962Z,55.97
2023-03-12T10:53:43.883Z,55.97
2023-03-12T10:55:43.164Z,55.97
2023-03-12T10:57:42.929Z,0.16
2023-03-12T10:59:43.228Z,0.16
2023-03-12T11:01:50.631Z,55.97
2023-03-12T11:03:43.689Z,55.97
2023-03-12T11:05:43.721Z,55.97
2023-03-12T11:07:43.130Z,55.97
2023-03-12T11:10:01.243Z,0.14
2023-03-12T11:11:44.712Z,0.14
2023-03-12T11:13:42.637Z,0.14
2023-03-12T11:15:43.445Z,0.13
2023-03-12T11:17:43.356Z,0.13
2023-03-12T11:19:43.231Z,0.13
2023-03-12T11:21:43.546Z,45.85
2023-03-12T11:23:43.034Z,45.85
2023-03-12T11:25:43.453Z,45.85
2023-03-12T11:27:43.672Z,0.12
2023-03-12T11:29:43.287Z,0.12
2023-03-12T11:31:46.948Z,0.12
2023-03-12T11:33:43.302Z,0.12
2023-03-12T11:35:43.279Z,0.12
2023-03-12T11:37:43.590Z,0.12
2023-03-12T11:39:43.134Z,0.11
2023-03-12T11:41:43.712Z,0.11
2023-03-12T11:44:04.438Z,0.12
2023-03-12T11:45:43.666Z,41.23
2023-03-12T11:47:44.048Z,41.23
2023-03-12T11:49:43.881Z,41.23
2023-03-12T11:51:43.114Z,0.12
2023-03-12T11:53:43.800Z,0.12
2023-03-12T11:55:42.986Z,0.12
2023-03-12T11:57:43.278Z,41.23
2023-03-12T11:59:42.953Z,41.23
2023-03-12T12:01:44.508Z,41.23
2023-03-12T12:03:43.834Z,0.1
2023-03-12T12:05:43.242Z,0.1
2023-03-12T12:07:44.632Z,0.1
2023-03-12T12:09:43.323Z,0.1
2023-03-12T12:11:43.638Z,0.1
2023-03-12T12:13:47.104Z,34.17
2023-03-12T12:15:43.871Z,0.09
2023-03-12T12:17:44.058Z,0.09
2023-03-12T12:19:43.715Z,0.09
2023-03-12T12:21:43.203Z,32.85
2023-03-12T12:23:44.876Z,32.85
2023-03-12T12:25:44.470Z,32.85
2023-03-12T12:27:43.440Z,32.85
2023-03-12T12:29:43.040Z,32.85
2023-03-12T12:31:43.722Z,32.85
2023-03-12T12:33:43.359Z,0.08
2023-03-12T12:35:43.405Z,0.08
2023-03-12T12:37:44.129Z,0.08
2023-03-12T12:39:45.254Z,30.3
2023-03-12T12:41:42.909Z,30.3
2023-03-12T12:43:43.475Z,30.3
2023-03-12T12:45:43.026Z,27.87
2023-03-12T12:47:43.967Z,27.87
2023-03-12T12:49:43.357Z,27.87
2023-03-12T12:51:44.657Z,0.08
2023-03-12T12:53:43.107Z,0.08
2023-03-12T12:55:43.578Z,0.08
2023-03-12T12:57:45.672Z,0.07
2023-03-12T12:59:42.868Z,0.07
2023-03-12T13:01:50.491Z,0.07
2023-03-12T13:03:42.859Z,0.07
2023-03-12T13:05:43.465Z,0.07
2023-03-12T13:07:43.896Z,0.07
2023-03-12T13:09:43.252Z,0.07
2023-03-12T13:12:05.596Z,0.07
2023-03-12T13:13:42.968Z,0.07
2023-03-12T13:15:43.906Z,0.07
2023-03-12T13:17:43.482Z,0.07
2023-03-12T13:19:52.296Z,0.07
2023-03-12T13:21:43.641Z,0.07
2023-03-12T13:23:43.725Z,0.07
2023-03-12T13:25:42.961Z,0.07
2023-03-12T13:27:43.393Z,25.55
2023-03-12T13:29:57.732Z,25.55
2023-03-12T13:31:43.937Z,25.55
2023-03-12T13:33:43.273Z,22.3
2023-03-12T13:35:47.243Z,22.3
2023-03-12T13:37:43.514Z,22.3
2023-03-12T13:39:42.773Z,0.06
2023-03-12T13:41:43.341Z,0.06
2023-03-12T13:43:42.900Z,0.06
2023-03-12T13:45:43.308Z,20.27
2023-03-12T13:47:44.028Z,20.27
2023-03-12T13:49:43.134Z,20.27
2023-03-12T13:51:43.834Z,20.27
2023-03-12T13:53:43.323Z,20.27
2023-03-12T13:55:43.638Z,20.27
2023-03-12T13:57:42.936Z,0.05
2023-03-12T13:59:43.886Z,0.05
2023-03-12T14:01:48.475Z,18.35
2023-03-12T14:03:43.017Z,0.05
2023-03-12T14:05:43.977Z,0.05
2023-03-12T14:07:43.022Z,0.05
2023-03-12T14:09:43.363Z,19.3
2023-03-12T14:11:42.883Z,19.3
2023-03-12T14:13:43.861Z,0.05
2023-03-12T14:15:43.000Z,0.05
2023-03-12T14:17:43.828Z,0.05
2023-03-12T14:19:42.931Z,0.05
2023-03-12T14:21:43.695Z,19.3
2023-03-12T14:23:42.939Z,19.3
2023-03-12T14:25:43.192Z,19.3
2023-03-12T14:27:45.821Z,19.3
2023-03-12T14:29:43.555Z,19.3
2023-03-12T14:31:43.533Z,20.27
2023-03-12T14:33:46.404Z,0.05
2023-03-12T14:35:42.861Z,0.05
2023-03-12T14:37:43.475Z,21.27
2023-03-12T14:39:42.943Z,0.06
2023-03-12T14:41:43.414Z,0.06
2023-03-12T14:43:42.904Z,20.27
2023-03-12T14:45:43.288Z,19.3
2023-03-12T14:47:43.288Z,19.3
2023-03-12T14:49:43.364Z,0.05
2023-03-12T14:51:46.945Z,0.05
2023-03-12T14:53:43.180Z,0.05
2023-03-12T14:55:44.055Z,0.05
2023-03-12T14:57:43.194Z,0.05
2023-03-12T14:59:43.680Z,0.05
2023-03-12T15:01:46.729Z,17.43
2023-03-12T15:03:43.843Z,0.05
2023-03-12T15:05:43.679Z,0.05
2023-03-12T15:07:43.818Z,0.05
2023-03-12T15:09:42.646Z,0.05
2023-03-12T15:11:43.159Z,0.05
2023-03-12T15:13:43.754Z,0.05
2023-03-12T15:15:43.382Z,0.05
2023-03-12T15:17:45.665Z,0.05
2023-03-12T15:19:43.089Z,19.3
2023-03-12T15:21:42.994Z,0.05
2023-03-12T15:23:43.460Z,0.05
2023-03-12T15:25:42.922Z,19.3
2023-03-12T15:27:43.658Z,0.05
2023-03-12T15:29:43.576Z,0.05
2023-03-12T15:31:43.497Z,20.27
2023-03-12T15:33:45.020Z,0.05
2023-03-12T15:35:45.535Z,0.05
2023-03-12T15:37:44.072Z,21.27
2023-03-12T15:39:43.243Z,21.27
2023-03-12T15:41:46.032Z,21.27
2023-03-12T15:43:43.525Z,0.06
2023-03-12T15:45:43.173Z,0.06
2023-03-12T15:47:47.108Z,0.06
2023-03-12T15:49:42.967Z,21.27
2023-03-12T15:51:43.647Z,0.06
2023-03-12T15:53:42.854Z,0.06
2023-03-12T15:55:43.490Z,0.05
2023-03-12T15:57:42.980Z,0.05
2023-03-12T15:59:43.744Z,0.05
2023-03-12T16:01:47.517Z,0.05
2023-03-12T16:03:43.542Z,20.27
2023-03-12T16:05:43.736Z,20.27
2023-03-12T16:07:43.209Z,19.3
2023-03-12T16:09:43.426Z,19.3
2023-03-12T16:11:43.057Z,19.3
2023-03-12T16:13:43.661Z,18.35
2023-03-12T16:15:42.824Z,0.05
2023-03-12T16:17:43.902Z,0.05
2023-03-12T16:19:43.370Z,17.43
2023-03-12T16:21:43.527Z,17.43
2023-03-12T16:23:43.671Z,17.43
2023-03-12T16:25:45.933Z,0.04
2023-03-12T16:27:54.868Z,0.04
2023-03-12T16:29:43.301Z,0.04
2023-03-12T16:31:43.049Z,0.04
2023-03-12T16:33:43.986Z,16.54
2023-03-12T16:35:43.439Z,16.54
2023-03-12T16:37:44.450Z,0.05
2023-03-12T16:39:44.113Z,0.05
2023-03-12T16:41:53.412Z,0.05
2023-03-12T16:43:44.375Z,0.06
2023-03-12T16:45:43.328Z,20.27
2023-03-12T16:47:44.147Z,20.27
2023-03-12T16:49:43.777Z,0.05
2023-03-12T16:51:43.965Z,0.05
2023-03-12T16:53:43.139Z,0.05
2023-03-12T16:55:53.121Z,17.43
2023-03-12T16:57:43.239Z,0.05
2023-03-12T16:59:43.590Z,0.05
2023-03-12T17:01:47.604Z,0.04
2023-03-12T17:03:46.858Z,0.04
2023-03-12T17:05:44.047Z,0.04
2023-03-12T17:07:43.250Z,0.05
2023-03-12T17:09:43.946Z,0.05
2023-03-12T17:11:43.770Z,0.05
2023-03-12T17:13:44.949Z,15.68
2023-03-12T17:15:43.110Z,15.68
2023-03-12T17:17:43.656Z,15.68
2023-03-12T17:19:43.131Z,0.04
2023-03-12T17:21:43.277Z,14.84
2023-03-12T17:23:43.375Z,14.84
2023-03-12T17:25:42.869Z,14.84
2023-03-12T17:27:43.244Z,0.04
2023-03-12T17:29:43.542Z,0.04
2023-03-12T17:31:43.409Z,14.84
2023-03-12T17:33:43.835Z,14.84
2023-03-12T17:35:42.914Z,14.84
2023-03-12T17:37:43.217Z,0.04
2023-03-12T17:39:47.149Z,0.04
2023-03-12T17:42:00.267Z,0.04
2023-03-12T17:43:43.092Z,14.03
2023-03-12T17:45:45.583Z,0.04
2023-03-12T17:47:56.039Z,0.04
2023-03-12T17:49:43.762Z,0.03
2023-03-12T17:51:43.005Z,11.74
2023-03-12T17:53:43.566Z,11.74
2023-03-12T17:55:45.639Z,11.03
2023-03-12T17:57:43.369Z,11.03
2023-03-12T17:59:42.841Z,11.03
2023-03-12T18:01:47.378Z,11.03
2023-03-12T18:03:43.359Z,11.03
2023-03-12T18:05:43.849Z,11.03
2023-03-12T18:07:42.807Z,11.74
2023-03-12T18:09:43.322Z,0.03
2023-03-12T18:11:44.101Z,0.03
2023-03-12T18:13:43.209Z,11.74
2023-03-12T18:15:43.849Z,0.03
2023-03-12T18:17:43.733Z,0.03
2023-03-12T18:19:46.655Z,0.03
2023-03-12T18:21:56.973Z,0.03
2023-03-12T18:23:44.008Z,0.03
2023-03-12T18:25:55.267Z,0.03
2023-03-12T18:27:43.681Z,0.03
2023-03-12T18:29:42.866Z,0.03
2023-03-12T18:31:44.028Z,0.03
2023-03-12T18:33:43.277Z,0.03
2023-03-12T18:35:43.616Z,0.03
2023-03-12T18:37:42.935Z,0.03
2023-03-12T18:39:43.464Z,0.03
2023-03-12T18:41:42.948Z,0.03
2023-03-12T18:43:44.619Z,0.03
2023-03-12T18:45:43.613Z,0.03
2023-03-12T18:47:43.947Z,0.03
2023-03-12T18:49:43.520Z,0.03
2023-03-12T18:51:42.977Z,0.03
2023-03-12T18:53:43.459Z,0.03
2023-03-12T18:55:43.804Z,0.03
2023-03-12T18:57:43.328Z,0.03
2023-03-12T18:59:43.843Z,0.03
2023-03-12T19:01:47.545Z,0.03
2023-03-12T19:03:45.515Z,0.03
2023-03-12T19:05:43.468Z,0.03
2023-03-12T19:08:01.348Z,0.03
2023-03-12T19:09:43.012Z,0.03
2023-03-12T19:11:43.789Z,0.03
2023-03-12T19:13:56.687Z,0.03
2023-03-12T19:15:43.561Z,0.03
2023-03-12T19:17:44.043Z,0.03
2023-03-12T19:19:43.182Z,0.03
2023-03-12T19:21:45.310Z,0.03
2023-03-12T19:23:43.152Z,0.03
2023-03-12T19:25:43.726Z,0.03
2023-03-12T19:27:43.383Z,1.88
2023-03-12T19:29:42.623Z,1.88
2023-03-12T19:31:43.862Z,1.88
2023-03-12T19:33:52.941Z,235.1
2023-03-12T19:35:43.383Z,235.1
2023-03-12T19:37:43.671Z,235.1
2023-03-12T19:39:54.839Z,235.1
2023-03-12T19:41:43.890Z,235.1
2023-03-12T19:43:42.871Z,235.1
2023-03-12T19:45:43.606Z,235.1
2023-03-12T19:47:43.223Z,235.1
2023-03-12T19:49:43.467Z,235.1
2023-03-12T19:51:43.181Z,235.1
2023-03-12T19:53:43.530Z,235.1
2023-03-12T19:55:59.453Z,235.1
2023-03-12T19:57:43.365Z,235.1
2023-03-12T19:59:42.820Z,235.1
2023-03-12T20:01:47.257Z,235.1
2023-03-12T20:03:44.727Z,235.1
2023-03-12T20:05:43.705Z,235.1
2023-03-12T20:07:42.903Z,235.1
2023-03-12T20:09:43.278Z,235.1
2023-03-12T20:11:43.032Z,235.1
2023-03-12T20:13:43.356Z,235.1
2023-03-12T20:15:42.845Z,235.1
2023-03-12T20:17:44.059Z,235.1
2023-03-12T20:19:43.200Z,235.1
2023-03-12T20:21:43.313Z,235.1
2023-03-12T20:23:42.809Z,235.1
2023-03-12T20:25:43.211Z,235.1
2023-03-12T20:27:43.683Z,235.1
2023-03-12T20:29:43.051Z,235.1
2023-03-12T20:31:43.991Z,235.1
2023-03-12T20:33:43.961Z,235.1
2023-03-12T20:35:43.769Z,235.1
2023-03-12T20:37:43.023Z,235.1
2023-03-12T20:39:43.408Z,1606.7
2023-03-12T20:41:42.915Z,1606.7
2023-03-12T20:43:43.286Z,1606.7
2023-03-12T20:45:43.678Z,1.67
2023-03-12T20:47:43.670Z,1.67
2023-03-12T20:49:43.740Z,1.67
2023-03-12T20:51:43.101Z,1.67
2023-03-12T20:53:43.405Z,1.67
2023-03-12T20:55:43.040Z,1.67
2023-03-12T20:57:43.596Z,1.67
2023-03-12T20:59:42.983Z,1.67
2023-03-12T21:01:47.544Z,1.67
2023-03-12T21:03:43.472Z,1.67
2023-03-12T21:05:47.448Z,1.67
2023-03-12T21:07:43.036Z,1.67
2023-03-12T21:09:43.343Z,1.67
2023-03-12T21:11:43.066Z,1.67
2023-03-12T21:13:43.335Z,1.67
2023-03-12T21:15:42.814Z,1.67
2023-03-12T21:17:44.107Z,1.67
2023-03-12T21:19:43.661Z,1.67
2023-03-12T21:21:43.266Z,1.67
2023-03-12T21:23:44.018Z,1.67
2023-03-12T21:25:43.172Z,1.67
2023-03-12T21:28:00.955Z,1.67
2023-03-12T21:29:42.886Z,1.67
2023-03-12T21:31:44.204Z,1.67
2023-03-12T21:33:43.851Z,1.67
2023-03-12T21:35:43.168Z,1.67
2023-03-12T21:37:43.725Z,1.67
2023-03-12T21:39:43.078Z,1.67
2023-03-12T21:41:43.697Z,1.67
2023-03-12T21:43:43.262Z,1.67
2023-03-12T21:45:46.325Z,1.67
2023-03-12T21:47:43.882Z,1.67
2023-03-12T21:49:43.728Z,1.67
2023-03-12T21:51:43.261Z,1.67
2023-03-12T21:53:57.529Z,1.67
2023-03-12T21:55:43.442Z,1.67
2023-03-12T21:57:43.041Z,1.67
2023-03-12T21:59:43.399Z,1.67
2023-03-12T22:01:47.438Z,1.67
2023-03-12T22:03:46.526Z,1.67
2023-03-12T22:05:43.354Z,1.67
2023-03-12T22:07:43.405Z,1.67
2023-03-12T22:09:43.114Z,1.67
2023-03-12T22:11:43.700Z,1.67
2023-03-12T22:13:43.081Z,1.67
2023-03-12T22:15:43.604Z,1.67
2023-03-12T22:17:43.600Z,1.67
2023-03-12T22:19:43.497Z,1.67
2023-03-12T22:21:43.037Z,1.67
2023-03-12T22:23:43.370Z,1.67
2023-03-12T22:25:43.228Z,1.67
2023-03-12T22:27:43.452Z,1.67
2023-03-12T22:29:44.785Z,1.67
2023-03-12T22:31:44.329Z,1.67
2023-03-12T22:33:43.746Z,1.67
2023-03-12T22:35:42.699Z,1.67
2023-03-12T22:37:43.298Z,1.67
2023-03-12T22:39:43.262Z,1.67
2023-03-12T22:41:43.623Z,1.67
2023-03-12T22:43:43.007Z,1.67
2023-03-12T22:45:43.422Z,1.67
2023-03-12T22:47:43.633Z,1.67
2023-03-12T22:49:43.482Z,1.67
2023-03-12T22:51:43.066Z,1.67
2023-03-12T22:53:43.629Z,1.67
2023-03-12T22:55:43.204Z,1.67
2023-03-12T22:57:43.602Z,1.67
2023-03-12T22:59:42.997Z,1.67
2023-03-12T23:01:45.338Z,1.67
2023-03-12T23:03:43.321Z,1.67
2023-03-12T23:05:44.342Z,1.67
2023-03-12T23:07:58.672Z,1.67
2023-03-12T23:09:44.471Z,1.67
2023-03-12T23:11:43.792Z,1.67
2023-03-12T23:13:43.152Z,1.67
2023-03-12T23:15:53.124Z,1.67
2023-03-12T23:17:43.789Z,1.67
2023-03-12T23:19:43.626Z,1.67
2023-03-12T23:21:43.013Z,1.67
2023-03-12T23:23:43.626Z,1.67
2023-03-12T23:25:43.185Z,1.67
2023-03-12T23:27:43.632Z,1.67
2023-03-12T23:29:42.931Z,1.67
2023-03-12T23:31:43.477Z,1.67
2023-03-12T23:33:44.780Z,1.67
2023-03-12T23:35:43.528Z,1.67
2023-03-12T23:37:43.457Z,1.67
2023-03-12T23:39:59.667Z,1.67
2023-03-12T23:41:43.311Z,1.67
2023-03-12T23:43:42.977Z,1.67
2023-03-12T23:45:43.589Z,1.67
2023-03-12T23:47:43.708Z,1.67
2023-03-12T23:49:43.583Z,1.67
2023-03-12T23:51:43.216Z,1.67
2023-03-12T23:53:44.045Z,1.67
2023-03-12T23:55:43.202Z,1.67
2023-03-12T23:57:43.717Z,1.67
2023-03-12T23:59:43.240Z,1.67
